Impacts TAF Board
For situational awareness. Not to be used for flight planning purposes.
IDs:

KCVG - Cincinnati Intl, KY, US

Issued at 1133 UTC 16 Jul 2019
Updated at 1311 UTC 16 Jul 2019
Potential Impact None Slight Moderate High
Time<<17/14Z 17/15Z 17/16Z 17/17Z 17/18Z 17/19Z 17/20Z 17/21Z 17/22Z 17/23Z 18/00Z 18/01Z 18/02Z
Type PRVL PRVL PRVL PRVL
VIS >6 >6 >6 >6
CIG 15 15 15 25
Cover OVC OVC OVC BKN
FltCat MVFR MVFR MVFR MVFR
WX VCSH VCSH VCSH VCSH
WDir 200 200 200 230
WSpd 6 6 6 7
WGst -- -- -- --
Raw TAF
KCVG 161133Z 1612/1718 17006KT P6SM SCT060 BKN100
  FM161400 18011G19KT P6SM VCSH SCT040 BKN100
  FM162300 20009KT P6SM -SHRA BKN040
  FM170700 20006KT P6SM -SHRA BKN025
  FM170900 20006KT P6SM VCSH OVC015
  FM171700 23007KT P6SM VCSH BKN025


METAR Board
Radar Display
Forecast Discussion
For situational awareness. Not to be used for flight planning purposes.